Anselmo, Nebraska
Current Conditions -  °F | °C
As of 2:53 PM on Monday 24 Nov 2014 (Local Time) from KBBW Reporting Station
Clear Clear  
Wind Chill: 30°   Ceiling: Unl
Heat Index: 40°   Visibility: 10mi
Dew Point: 17°   Wind: 21mph
Humidity: 40%   Direction: 350°N
Pressure: 29.89"   Gusts: 33mph
Location:  41.62°N, 99.87°W
Report Text: KBBW 242053Z AUTO 35018G29KT 10SM CLR 04/M08 A2989 RMK AO2 PK WND 35030/2003 SLP137 T00441083 53019
Loading
Personal Weather Stations






























Interactive Weather Map New forecast layout! Learn more

10-Day Weather Forecast

Advertisements
Track Severe Weather on mobile